Time;durP1;ratioP1;P1;durP2;ratioP2;P2;SDS_P1;SDS_P2;PMS_P1;PMS_P2;Temp;Humidity;BMP_temperature;BMP_pressure;BME280_temperature;BME280_humidity;BME280_pressure;Samples;Min_cycle;Max_cycle;Signal;HPM_P1;HPM_P2
2021/09/10 00:00:29;;;;;;;8.82;7.03;;;;;;;;;;5057744;28;20086;-79
2021/09/10 00:02:55;;;;;;;11.93;6.93;;;;;;;;;;5053971;28;20489;-79
2021/09/10 00:05:21;;;;;;;10.48;6.85;;;;;;;;;;5062749;28;20029;-79
2021/09/10 00:07:47;;;;;;;8.02;6.82;;;;;;;;;;5073474;28;20062;-79
2021/09/10 00:10:13;;;;;;;8.70;6.90;;;;;;;;;;5055547;28;20025;-79
2021/09/10 00:12:39;;;;;;;8.30;6.80;;;;;;;;;;5056740;28;20052;-79
2021/09/10 00:15:06;;;;;;;7.57;6.78;;;;;;;;;;5075784;28;20092;-79
2021/09/10 00:17:32;;;;;;;9.43;7.25;;;;;;;;;;5074858;28;20020;-79
2021/09/10 00:19:58;;;;;;;10.80;7.05;;;;;;;;;;5055323;28;20100;-79
2021/09/10 00:22:24;;;;;;;7.35;6.28;;;;;;;;;;5055290;28;20037;-79
2021/09/10 00:24:50;;;;;;;8.18;6.75;;;;;;;;;;5057169;28;20029;-79
2021/09/10 00:27:16;;;;;;;9.65;6.97;;;;;;;;;;5075461;28;20021;-79
2021/09/10 00:29:42;;;;;;;8.18;6.85;;;;;;;;;;5056008;28;20120;-79
2021/09/10 00:32:08;;;;;;;9.90;7.70;;;;;;;;;;5055661;28;20029;-79
2021/09/10 00:34:34;;;;;;;8.02;7.15;;;;;;;;;;5072701;28;20489;-79
2021/09/10 00:37:00;;;;;;;8.68;7.15;;;;;;;;;;5075413;28;20029;-79
2021/09/10 00:39:26;;;;;;;7.28;6.50;;;;;;;;;;5058331;28;20021;-79
2021/09/10 00:41:52;;;;;;;8.77;7.18;;;;;;;;;;5055595;28;20067;-79
2021/09/10 00:44:18;;;;;;;8.00;6.93;;;;;;;;;;5056103;28;20551;-79
2021/09/10 00:46:44;;;;;;;8.30;7.15;;;;;;;;;;5055475;28;20108;-79
2021/09/10 00:49:10;;;;;;;9.70;6.78;;;;;;;;;;5068758;28;20040;-79
2021/09/10 00:51:36;;;;;;;9.88;7.20;;;;;;;;;;5077712;28;20028;-79
2021/09/10 00:54:02;;;;;;;8.55;6.80;;;;;;;;;;5066057;28;20056;-79
2021/09/10 00:56:28;;;;;;;8.38;6.80;;;;;;;;;;5058623;28;20096;-79
2021/09/10 00:58:56;;;;;;;8.10;6.95;;;;;;;;;;5069315;28;20498;-79
2021/09/10 01:01:23;;;;;;;9.38;6.85;;;;;;;;;;5078228;28;20103;-79
2021/09/10 01:03:49;;;;;;;7.30;6.53;;;;;;;;;;5081152;28;20048;-79
2021/09/10 01:06:15;;;;;;;8.40;6.90;;;;;;;;;;5067984;28;20036;-79
2021/09/10 01:08:42;;;;;;;7.32;6.45;;;;;;;;;;5075446;28;20036;-79
2021/09/10 01:11:08;;;;;;;10.00;7.45;;;;;;;;;;5064181;28;20024;-79
2021/09/10 01:13:35;;;;;;;7.78;6.97;;;;;;;;;;5073118;28;20029;-79
2021/09/10 01:16:01;;;;;;;9.48;7.03;;;;;;;;;;5081852;28;20056;-79
2021/09/10 01:18:27;;;;;;;9.60;7.22;;;;;;;;;;5071120;28;20091;-78
2021/09/10 01:20:53;;;;;;;8.73;6.93;;;;;;;;;;5058515;28;20502;-79
2021/09/10 01:23:19;;;;;;;9.77;8.27;;;;;;;;;;5042595;28;20037;-79
2021/09/10 01:25:45;;;;;;;8.43;7.07;;;;;;;;;;5059065;28;20079;-79
2021/09/10 01:28:12;;;;;;;9.60;7.15;;;;;;;;;;5067574;28;20105;-79
2021/09/10 01:30:39;;;;;;;7.70;6.88;;;;;;;;;;5083826;28;20021;-79
2021/09/10 01:33:07;;;;;;;9.88;6.43;;;;;;;;;;5075132;28;20033;-79
2021/09/10 01:35:33;;;;;;;8.98;6.82;;;;;;;;;;5078272;28;20036;-79
2021/09/10 01:37:59;;;;;;;7.38;6.50;;;;;;;;;;5074217;28;20029;-79
2021/09/10 01:40:25;;;;;;;7.65;6.85;;;;;;;;;;5063275;28;20059;-78
2021/09/10 01:42:53;;;;;;;8.15;6.47;;;;;;;;;;5071154;28;20037;-78
2021/09/10 01:45:19;;;;;;;8.23;6.38;;;;;;;;;;5059796;28;20021;-79
2021/09/10 01:47:45;;;;;;;9.43;7.43;;;;;;;;;;5059319;28;20025;-79
2021/09/10 01:50:12;;;;;;;8.13;6.97;;;;;;;;;;5077637;28;20032;-79
2021/09/10 01:52:38;;;;;;;8.55;7.00;;;;;;;;;;5077242;28;20394;-79
2021/09/10 01:55:05;;;;;;;10.82;7.60;;;;;;;;;;5058127;28;20029;-79
2021/09/10 01:57:31;;;;;;;8.98;7.55;;;;;;;;;;5058221;28;20477;-78
2021/09/10 01:59:57;;;;;;;10.10;7.45;;;;;;;;;;5076712;28;20086;-79
2021/09/10 02:02:23;;;;;;;9.00;7.18;;;;;;;;;;5076560;28;20035;-79
2021/09/10 02:04:49;;;;;;;9.60;7.65;;;;;;;;;;5077740;28;20103;-79
2021/09/10 02:07:15;;;;;;;12.43;7.50;;;;;;;;;;5077810;28;20032;-79
2021/09/10 02:09:41;;;;;;;8.45;7.22;;;;;;;;;;5066207;28;20032;-79
2021/09/10 02:12:08;;;;;;;9.60;7.82;;;;;;;;;;5065638;28;20032;-79
2021/09/10 02:14:34;;;;;;;9.25;8.02;;;;;;;;;;5078190;28;20036;-79
2021/09/10 02:17:01;;;;;;;8.75;6.80;;;;;;;;;;5078814;28;20028;-79
2021/09/10 02:19:27;;;;;;;10.63;8.25;;;;;;;;;;5061575;28;20033;-79
2021/09/10 02:21:53;;;;;;;8.15;7.30;;;;;;;;;;5058274;28;20486;-79
2021/09/10 02:24:19;;;;;;;8.63;7.40;;;;;;;;;;5072242;28;20119;-79
2021/09/10 02:26:45;;;;;;;9.00;7.57;;;;;;;;;;5076878;28;20048;-79
2021/09/10 02:29:11;;;;;;;8.75;7.35;;;;;;;;;;5061657;28;20532;-79
2021/09/10 02:31:37;;;;;;;10.13;7.90;;;;;;;;;;5056994;28;20029;-79
2021/09/10 02:34:04;;;;;;;9.02;7.57;;;;;;;;;;5069784;28;20635;-79
2021/09/10 02:36:30;;;;;;;11.27;7.30;;;;;;;;;;5076723;28;20043;-79
2021/09/10 02:38:56;;;;;;;8.13;6.72;;;;;;;;;;5064022;28;20035;-79
2021/09/10 02:41:22;;;;;;;12.20;8.15;;;;;;;;;;5056367;28;20060;-79
2021/09/10 02:43:48;;;;;;;9.38;7.50;;;;;;;;;;5067224;28;20107;-79
2021/09/10 02:46:14;;;;;;;8.57;6.80;;;;;;;;;;5076843;28;20467;-79
2021/09/10 02:48:40;;;;;;;9.05;7.00;;;;;;;;;;5066648;28;20029;-79
2021/09/10 02:51:06;;;;;;;8.57;7.70;;;;;;;;;;5056133;28;20044;-79
2021/09/10 02:53:32;;;;;;;8.57;7.25;;;;;;;;;;5047692;28;20086;-79
2021/09/10 02:55:59;;;;;;;11.60;7.13;;;;;;;;;;5077125;28;20107;-79
2021/09/10 02:58:25;;;;;;;8.18;7.35;;;;;;;;;;5075945;28;20029;-79
2021/09/10 03:00:51;;;;;;;8.55;6.90;;;;;;;;;;5075863;28;20035;-79
2021/09/10 03:03:17;;;;;;;9.48;7.15;;;;;;;;;;5072786;28;20029;-79
2021/09/10 03:05:43;;;;;;;8.23;7.43;;;;;;;;;;5076359;28;20098;-79
2021/09/10 03:08:09;;;;;;;8.02;7.00;;;;;;;;;;5075678;28;20095;-79
2021/09/10 03:10:35;;;;;;;9.02;7.18;;;;;;;;;;5076064;28;20033;-79
2021/09/10 03:13:01;;;;;;;8.98;6.85;;;;;;;;;;5070350;28;20060;-79
2021/09/10 03:15:27;;;;;;;8.77;7.20;;;;;;;;;;5056598;28;20029;-79
2021/09/10 03:17:53;;;;;;;10.70;7.15;;;;;;;;;;5059898;28;20020;-79
2021/09/10 03:20:19;;;;;;;8.63;6.85;;;;;;;;;;5075888;28;20032;-79
2021/09/10 03:22:45;;;;;;;7.60;6.47;;;;;;;;;;5055088;28;20503;-79
2021/09/10 03:25:11;;;;;;;7.70;6.90;;;;;;;;;;5061116;28;20033;-80
2021/09/10 03:27:37;;;;;;;9.70;6.47;;;;;;;;;;5074652;28;20024;-79
2021/09/10 03:30:04;;;;;;;9.38;6.95;;;;;;;;;;5055372;28;20035;-79
2021/09/10 03:32:30;;;;;;;7.85;6.03;;;;;;;;;;5056346;28;20056;-79
2021/09/10 03:34:56;;;;;;;13.60;7.32;;;;;;;;;;5075925;28;20489;-79
2021/09/10 03:37:22;;;;;;;7.63;6.82;;;;;;;;;;5076619;28;20048;-79
2021/09/10 03:39:48;;;;;;;10.52;7.78;;;;;;;;;;5056303;28;20492;-80
2021/09/10 03:42:14;;;;;;;8.88;7.35;;;;;;;;;;5056012;28;20112;-80
2021/09/10 03:44:40;;;;;;;9.05;7.90;;;;;;;;;;5074003;28;20154;-79
2021/09/10 03:47:07;;;;;;;9.50;8.50;;;;;;;;;;5076328;28;20068;-80
2021/09/10 03:49:34;;;;;;;10.85;8.02;;;;;;;;;;5058514;28;20417;-80
2021/09/10 03:52:00;;;;;;;8.65;7.75;;;;;;;;;;5056274;28;20060;-80
2021/09/10 03:54:26;;;;;;;9.70;7.68;;;;;;;;;;5072027;28;20481;-80
2021/09/10 03:56:52;;;;;;;9.95;7.63;;;;;;;;;;5076031;28;20044;-80
2021/09/10 03:59:19;;;;;;;11.50;8.52;;;;;;;;;;5060602;28;20128;-80
2021/09/10 04:01:45;;;;;;;11.38;7.75;;;;;;;;;;5056166;28;20033;-79
2021/09/10 04:04:10;;;;;;;11.48;8.27;;;;;;;;;;5070123;28;20028;-79
2021/09/10 04:06:36;;;;;;;12.02;8.85;;;;;;;;;;5075718;28;20092;-80
2021/09/10 04:09:02;;;;;;;9.68;7.90;;;18.70;99.90;;;;;;5073681;28;20047;-79
2021/09/10 04:11:28;;;;;;;9.05;7.68;;;17.00;99.90;;;;;;5076132;28;20033;-79
2021/09/10 04:13:53;;;;;;;11.10;7.57;;;17.30;99.90;;;;;;5063459;28;20108;-79
2021/09/10 04:16:19;;;;;;;9.27;7.82;;;17.50;99.90;;;;;;5055442;28;20025;-79
2021/09/10 04:18:44;;;;;;;10.32;7.82;;;17.30;99.90;;;;;;5064891;28;20063;-79
2021/09/10 04:21:10;;;;;;;8.30;7.35;;;17.10;99.90;;;;;;5075288;28;20029;-79
2021/09/10 04:23:36;;;;;;;10.00;8.35;;;16.70;99.90;;;;;;5066144;28;20071;-79
2021/09/10 04:26:02;;;;;;;8.75;7.88;;;;;;;;;;5059197;28;20035;-79
2021/09/10 04:28:28;;;;;;;9.45;7.50;;;;;;;;;;5066432;28;20036;-79
2021/09/10 04:30:54;;;;;;;9.13;8.00;;;;;;;;;;5077490;28;20025;-79
2021/09/10 04:33:23;;;;;;;11.02;7.63;;;;;;;;;;5078681;28;20180;-80
2021/09/10 04:35:49;;;;;;;9.23;7.15;;;;;;;;;;5079680;28;20497;-79
2021/09/10 04:38:15;;;;;;;9.00;8.10;;;;;;;;;;5054574;28;20083;-79
2021/09/10 04:40:41;;;;;;;8.23;7.22;;;;;;;;;;5058125;28;20017;-79
2021/09/10 04:43:07;;;;;;;10.07;8.10;;;;;;;;;;5045883;28;20028;-79
2021/09/10 04:45:33;;;;;;;12.48;7.90;;;;;;;;;;5079088;28;20024;-80
2021/09/10 04:47:59;;;;;;;8.90;7.53;;;;;;;;;;5074304;28;20028;-79
2021/09/10 04:50:25;;;;;;;10.15;8.13;;;;;;;;;;5057835;28;20052;-79
2021/09/10 04:52:51;;;;;;;10.38;7.65;;;;;;;;;;5061275;28;20036;-79
2021/09/10 04:55:17;;;;;;;9.25;8.35;;;;;;;;;;5080711;28;20028;-79
2021/09/10 04:57:43;;;;;;;10.57;8.00;;;;;;;;;;5078243;28;20063;-79
2021/09/10 05:00:10;;;;;;;10.60;8.27;;;;;;;;;;5059041;28;20029;-79
2021/09/10 05:02:39;;;;;;;11.13;8.00;;;;;;;;;;5060327;28;20094;-79
2021/09/10 05:05:06;;;;;;;10.77;8.40;;;;;;;;;;5078970;28;20445;-79
2021/09/10 05:07:32;;;;;;;9.52;8.52;;;;;;;;;;5078666;28;20051;-79
2021/09/10 05:09:58;;;;;;;11.15;8.00;;;;;;;;;;5058059;28;20025;-79
2021/09/10 05:12:24;;;;;;;9.45;8.43;;;;;;;;;;5073790;28;20039;-79
2021/09/10 05:14:52;;;;;;;9.65;7.88;;;;;;;;;;5077881;28;20052;-79
2021/09/10 05:17:18;;;;;;;10.45;7.70;;;;;;;;;;5079378;28;20024;-79
2021/09/10 05:19:44;;;;;;;12.23;8.82;;;;;;;;;;5060836;28;20478;-79
2021/09/10 05:22:10;;;;;;;10.80;7.70;;;;;;;;;;5055579;28;20029;-76
2021/09/10 05:24:37;;;;;;;10.80;7.40;;;;;;;;;;5054465;28;20029;-76
2021/09/10 05:27:04;;;;;;;9.80;7.90;;;;;;;;;;5054233;28;20102;-76
2021/09/10 05:29:30;;;;;;;8.80;7.90;;;;;;;;;;5054103;28;20036;-76
2021/09/10 05:31:56;;;;;;;9.48;7.80;;;;;;;;;;5054690;28;20033;-76
2021/09/10 05:34:22;;;;;;;11.57;8.10;;;;;;;;;;5054750;28;20112;-77
2021/09/10 05:36:48;;;;;;;10.07;7.57;;;;;;;;;;5053134;28;20029;-76
2021/09/10 05:39:14;;;;;;;8.10;7.28;;;;;;;;;;5067733;28;20548;-76
2021/09/10 05:41:40;;;;;;;7.97;6.88;;;;;;;;;;5056501;28;20032;-76
2021/09/10 05:44:06;;;;;;;11.45;7.05;;;;;;;;;;5041992;28;20493;-76
2021/09/10 05:46:32;;;;;;;9.07;6.38;;;;;;;;;;5036639;28;20060;-76
2021/09/10 05:48:58;;;;;;;8.48;6.57;;;;;;;;;;5076223;28;20036;-80
2021/09/10 05:51:24;;;;;;;10.57;6.95;;;;;;;;;;5085990;28;20080;-80
2021/09/10 05:53:51;;;;;;;7.35;6.50;;;;;;;;;;5071791;28;20033;-80
2021/09/10 05:56:17;;;;;;;7.75;6.15;;;;;;;;;;5060213;28;20508;-81
2021/09/10 05:58:43;;;;;;;7.38;5.90;;;;;;;;;;5069840;28;20032;-80
2021/09/10 06:01:09;;;;;;;8.70;6.30;;;;;;;;;;5076350;28;20033;-81
2021/09/10 06:03:35;;;;;;;7.25;6.00;;;;;;;;;;5067994;28;20036;-80
2021/09/10 06:06:01;;;;;;;7.57;6.10;;;;;;;;;;5078867;28;20504;-80
2021/09/10 06:08:27;;;;;;;6.88;6.05;;;;;;;;;;5073722;28;20031;-80
2021/09/10 06:10:53;;;;;;;9.80;5.80;;;;;;;;;;5062572;28;20028;-81
2021/09/10 06:13:19;;;;;;;8.60;6.47;;;;;;;;;;5077835;28;20035;-80
2021/09/10 06:15:45;;;;;;;8.15;5.82;;;;;;;;;;5053797;28;20029;-81
2021/09/10 06:18:11;;;;;;;9.88;5.10;;;;;;;;;;5059022;28;20037;-80
2021/09/10 06:20:37;;;;;;;6.68;5.05;;;;;;;;;;5061996;28;20075;-80
2021/09/10 06:23:03;;;;;;;7.40;5.15;;;;;;;;;;5063689;28;20039;-80
2021/09/10 06:25:29;;;;;;;6.65;5.28;;;;;;;;;;5088961;28;20036;-80
2021/09/10 06:27:55;;;;;;;6.47;5.25;;;;;;;;;;5060974;28;20025;-80
2021/09/10 06:30:21;;;;;;;6.80;5.30;;;;;;;;;;5079001;28;20043;-81
2021/09/10 06:32:47;;;;;;;6.43;5.13;;;;;;;;;;5097102;28;20097;-80
2021/09/10 06:35:13;;;;;;;5.82;5.18;;;;;;;;;;5060797;28;20095;-81
2021/09/10 06:37:39;;;;;;;7.10;5.13;;;;;;;;;;5095931;28;20048;-81
2021/09/10 06:40:06;;;;;;;8.18;5.57;;;;;;;;;;5095651;28;20507;-81
2021/09/10 06:42:32;;;;;;;7.20;5.35;;;;;;;;;;5096394;28;20024;-81
2021/09/10 06:44:58;;;;;;;7.28;5.38;;;;;;;;;;5091494;28;20032;-81
2021/09/10 06:47:24;;;;;;;9.68;5.32;;;;;;;;;;5058060;28;20028;-80
2021/09/10 06:49:50;;;;;;;8.98;5.25;;;;;;;;;;5056924;28;20066;-80
2021/09/10 06:52:16;;;;;;;8.93;5.07;;;;;;;;;;5054645;28;20123;-80
2021/09/10 06:54:42;;;;;;;6.32;5.28;;;;;;;;;;5056382;28;20052;-80
2021/09/10 06:57:08;;;;;;;8.20;6.45;;;;;;;;;;5067228;28;20025;-80
2021/09/10 06:59:34;;;;;;;6.35;5.05;;;;;;;;;;5056939;28;20055;-80
2021/09/10 07:02:00;;;;;;;10.30;5.30;;;;;;;;;;5075743;28;20482;-80
2021/09/10 07:04:26;;;;;;;6.88;5.80;;;;;;;;;;5074669;28;20031;-81
2021/09/10 07:06:52;;;;;;;5.78;4.97;;;;;;;;;;5074002;28;20039;-80
2021/09/10 07:09:18;;;;;;;8.25;5.78;;;;;;;;;;5073196;28;20066;-81
2021/09/10 07:11:44;;;;;;;9.35;5.70;;;;;;;;;;5075504;28;20079;-79
2021/09/10 07:14:10;;;;;;;8.70;5.47;;;;;;;;;;5057273;28;20021;-81
2021/09/10 07:16:36;;;;;;;9.15;5.22;;;;;;;;;;5074828;28;20450;-80
2021/09/10 07:19:02;;;;;;;5.40;4.90;;;;;;;;;;5074567;28;20020;-81
2021/09/10 07:21:28;;;;;;;6.82;4.65;;;;;;;;;;5074950;28;20024;-81
2021/09/10 07:23:54;;;;;;;6.20;4.70;;;;;;;;;;5076664;28;20021;-81
2021/09/10 07:26:23;;;;;;;5.53;4.88;;;;;;;;;;5077399;28;20025;-81
2021/09/10 07:28:49;;;;;;;8.57;5.55;;;;;;;;;;5048849;28;20532;-79
2021/09/10 07:31:15;;;;;;;6.47;5.45;;;;;;;;;;5057895;28;20033;-81
2021/09/10 07:33:42;;;;;;;6.88;5.05;;;;;;;;;;5064452;28;20058;-81
2021/09/10 07:36:09;;;;;;;9.98;5.03;;;;;;;;;;5059422;28;20489;-81
2021/09/10 07:38:35;;;;;;;6.13;5.20;;;;;;;;;;5077655;28;20048;-80
2021/09/10 07:41:02;;;;;;;7.70;4.43;;;;;;;;;;5081338;28;20469;-80
2021/09/10 07:43:28;;;;;;;9.20;4.88;;;;;;;;;;5077723;28;20047;-80
2021/09/10 07:45:54;;;;;;;9.15;5.15;;;;;;;;;;5046076;28;20039;-81
2021/09/10 07:48:20;;;;;;;7.38;5.00;;;;;;;;;;5039960;28;20033;-80
2021/09/10 07:50:47;;;;;;;9.00;4.82;;;;;;;;;;5057270;28;20128;-80
2021/09/10 07:53:12;;;;;;;6.90;5.70;;;;;;;;;;5063074;28;20068;-81
2021/09/10 07:55:39;;;;;;;9.98;5.50;;;;;;;;;;5077752;28;20032;-81
2021/09/10 07:58:05;;;;;;;11.43;5.85;;;;;;;;;;5076779;28;20497;-81
2021/09/10 08:00:31;;;;;;;8.55;5.15;;;;;;;;;;5062733;28;20028;-79
2021/09/10 08:02:57;;;;;;;8.88;5.82;;;;;;;;;;5082210;28;20040;-78
2021/09/10 08:05:23;;;;;;;6.57;5.25;;;;;;;;;;5072632;28;20048;-80
2021/09/10 08:07:49;;;;;;;5.90;4.78;;;;;;;;;;5082724;28;20028;-78
2021/09/10 08:10:16;;;;;;;7.15;5.20;;;;;;;;;;5062777;28;20036;-78
2021/09/10 08:12:43;;;;;;;5.97;4.85;;;;;;;;;;5075477;28;20489;-79
2021/09/10 08:15:10;;;;;;;8.50;5.38;;;;;;;;;;5073415;28;20025;-79
2021/09/10 08:17:36;;;;;;;8.07;5.07;;;;;;;;;;5060670;28;20059;-80
2021/09/10 08:20:02;;;;;;;8.65;4.80;;;;;;;;;;5060435;28;20029;-77
2021/09/10 08:22:28;;;;;;;6.38;5.00;;;;;;;;;;5078375;28;20024;-78
2021/09/10 08:24:54;;;;;;;6.57;4.72;;;;;;;;;;5078473;28;20029;-78
2021/09/10 08:27:20;;;;;;;6.82;4.55;;;;;;;;;;5080984;28;20093;-81
2021/09/10 08:29:46;;;;;;;7.55;5.47;;;;;;;;;;5052589;28;20024;-78
2021/09/10 08:32:12;;;;;;;9.57;4.85;;;;;;;;;;5059382;28;20674;-78
2021/09/10 08:34:38;;;;;;;6.97;4.50;;;;;;;;;;5062955;28;20021;-79
2021/09/10 08:37:04;;;;;;;7.13;4.88;;;;;;;;;;5062011;28;20551;-78
2021/09/10 08:39:30;;;;;;;6.55;4.28;;;;;;;;;;5040175;28;20029;-79
2021/09/10 08:41:57;;;;;;;5.63;3.90;;;;;;;;;;5059136;28;20389;-80
2021/09/10 08:44:23;;;;;;;6.40;4.57;;;;;;;;;;5059310;28;20175;-79
2021/09/10 08:46:49;;;;;;;7.50;4.43;;;;;;;;;;5096090;28;20489;-81
2021/09/10 08:49:15;;;;;;;8.32;5.22;;;;;;;;;;5079564;28;20078;-82
2021/09/10 08:51:42;;;;;;;5.28;4.75;;;;;;;;;;5078685;28;20033;-80
2021/09/10 08:54:09;;;;;;;5.80;4.90;;;;;;;;;;5084815;28;20020;-79
2021/09/10 08:56:35;;;;;;;6.03;4.55;;;;;;;;;;5081041;28;20075;-79
2021/09/10 08:59:07;;;;;;;7.15;4.63;;;;;;;;;;5081069;28;20456;-79
2021/09/10 09:01:33;;;;;;;6.38;4.97;;;;;;;;;;5095599;28;20031;-77
2021/09/10 09:04:06;;;;;;;5.65;4.20;;;;;;;;;;5094754;28;20028;-81
2021/09/10 09:06:32;;;;;;;;;;;;;;;;;;5107414;28;20031;-80
2021/09/10 09:08:58;;;;;;;8.43;4.07;;;;;;;;;;5054626;28;20264;-79
2021/09/10 09:11:25;;;;;;;7.82;4.28;;;;;;;;;;5069113;28;20028;-81
2021/09/10 09:13:54;;;;;;;8.18;4.53;;;;;;;;;;5062669;28;20032;-82
2021/09/10 09:16:29;;;;;;;9.77;4.45;;;;;;;;;;5080756;28;20054;-81
2021/09/10 09:19:01;;;;;;;5.57;4.30;;;;;;;;;;5066922;28;20022;-80
2021/09/10 09:21:29;;;;;;;6.30;4.40;;;;;;;;;;5062164;28;20048;-80
2021/09/10 09:24:18;;;;;;;8.13;3.95;;;;;;;;;;5058488;28;20045;-80
2021/09/10 09:26:46;;;;;;;7.22;4.85;;;;;;;;;;5030031;28;20029;-80
2021/09/10 09:29:16;;;;;;;5.30;4.20;;;;;;;;;;5057855;28;20387;-80
2021/09/10 09:31:42;;;;;;;6.50;4.00;;;;;;;;;;5083492;22;20020;-82
2021/09/10 09:34:11;;;;;;;8.82;4.53;;;16.60;99.90;;;;;;5089645;28;20500;-81
2021/09/10 09:36:53;;;;;;;6.38;4.53;;;24.90;99.90;;;;;;5111683;28;20034;-81
2021/09/10 09:39:19;;;;;;;5.55;4.65;;;;;;;;;;5117464;28;20045;-81
2021/09/10 09:41:45;;;;;;;5.20;4.15;;;;;;;;;;5100715;28;20038;-81
2021/09/10 09:44:16;;;;;;;5.55;4.25;;;;;;;;;;5100840;28;20063;-84
2021/09/10 09:46:44;;;;;;;5.82;4.70;;;;;;;;;;5099366;28;20026;-83
2021/09/10 09:49:16;;;;;;;6.18;4.60;;;;;;;;;;5082137;28;20024;-82
2021/09/10 09:52:02;;;;;;;5.30;4.18;;;;;;;;;;5080460;28;20089;-79
2021/09/10 09:54:28;;;;;;;8.23;4.00;;;;;;;;;;5080707;28;20395;-81
2021/09/10 09:56:55;;;;;;;6.75;4.35;;;;;;;;;;5080675;28;20024;-81
2021/09/10 09:59:21;;;;;;;7.10;4.60;;;;;;;;;;5079999;28;20388;-80
2021/09/10 10:01:47;;;;;;;5.93;3.90;;;;;;;;;;5080246;28;20054;-81
2021/09/10 10:04:13;;;;;;;8.15;4.28;;;;;;;;;;5053133;28;20032;-81
2021/09/10 10:06:41;;;;;;;9.60;4.60;;;;;;;;;;5078257;28;20503;-81
2021/09/10 10:09:13;;;;;;;4.88;4.38;;;;;;;;;;5043409;28;20055;-81
2021/09/10 10:11:39;;;;;;;6.33;4.13;;;;;;;;;;5078181;28;20028;-81
2021/09/10 10:14:06;;;;;;;5.53;4.78;;;;;;;;;;5078961;28;20028;-81
2021/09/10 10:16:32;;;;;;;6.22;4.90;;;;;;;;;;5078866;28;20024;-81
2021/09/10 10:18:58;;;;;;;5.85;4.22;;;;;;;;;;5060436;28;20029;-80
2021/09/10 10:21:44;;;;;;;5.07;4.35;;;;;;;;;;5078418;28;20025;-80
2021/09/10 10:24:10;;;;;;;8.80;4.43;;;;;;;;;;5060773;28;20055;-81
2021/09/10 10:26:38;;;;;;;6.07;3.92;;;;;;;;;;5079038;28;20024;-81
2021/09/10 10:29:07;;;;;;;6.93;4.80;;;;;;;;;;5061070;28;20023;-81
2021/09/10 10:32:08;;;;;;;7.32;4.88;;;;;;;;;;5095851;28;20054;-80
2021/09/10 10:34:36;;;;;;;5.65;4.28;;;;;;;;;;5020632;28;20056;-81
2021/09/10 10:37:03;;;;;;;5.88;4.20;;;;;;;;;;5083734;28;20036;-81
2021/09/10 10:39:29;;;;;;;5.55;4.72;;;;;;;;;;5081939;28;20040;-81
2021/09/10 10:42:05;;;;;;;5.15;3.90;;;24.80;99.90;;;;;;5095587;28;20034;-81
2021/09/10 10:44:34;;;;;;;4.47;3.75;;;26.50;99.90;;;;;;5090312;28;20077;-79
2021/09/10 10:47:14;;;;;;;6.00;4.18;;;26.90;99.90;;;;;;5083717;28;20020;-77
2021/09/10 10:49:47;;;;;;;5.93;4.00;;;26.50;99.90;;;;;;5097135;28;20057;-80
2021/09/10 10:52:30;;;;;;;5.72;3.85;;;;;;;;;;5103971;28;20069;-81
2021/09/10 10:55:16;;;;;;;;;;;26.60;99.90;;;;;;5086921;28;20024;-81
2021/09/10 10:57:42;;;;;;;6.68;4.20;;;27.30;99.30;;;;;;5085778;28;19904;-80
2021/09/10 11:00:30;;;;;;;9.85;3.65;;;27.40;98.60;;;;;;5076846;28;20549;-80
2021/09/10 11:03:14;;;;;;;5.45;3.47;;;27.20;98.70;;;;;;5082726;28;20066;-81
2021/09/10 11:05:42;;;;;;;6.88;3.70;;;26.80;98.20;;;;;;5070418;28;20028;-82
2021/09/10 11:08:08;;;;;;;4.78;3.70;;;26.60;99.10;;;;;;5060150;28;20416;-79
2021/09/10 11:10:34;;;;;;;5.88;4.22;;;26.20;99.50;;;;;;5060401;28;20056;-79
2021/09/10 11:13:00;;;;;;;5.35;4.07;;;26.00;99.60;;;;;;5043055;28;20054;-80
2021/09/10 11:15:28;;;;;;;4.80;3.25;;;25.40;99.90;;;;;;5076389;28;20393;-79
2021/09/10 11:18:01;;;;;;;5.85;4.10;;;25.40;99.90;;;;;;5078025;28;20017;-79
2021/09/10 11:20:30;;;;;;;5.03;4.00;;;25.60;99.90;;;;;;5060610;28;20029;-78
2021/09/10 11:22:56;;;;;;;4.45;3.83;;;25.60;99.90;;;;;;5059310;28;20032;-79
2021/09/10 11:25:22;;;;;;;4.85;4.03;;;25.50;99.90;;;;;;5061529;28;20035;-78
2021/09/10 11:27:47;;;;;;;6.28;3.90;;;25.30;99.90;;;;;;5079426;28;20511;-79
2021/09/10 11:30:14;;;;;;;7.72;4.55;;;25.10;99.90;;;;;;5097007;28;20039;-77
2021/09/10 11:32:40;;;;;;;7.80;3.97;;;25.10;99.90;;;;;;5086181;28;20036;-79
2021/09/10 11:35:16;;;;;;;5.78;3.75;;;25.00;99.90;;;;;;5065746;28;20028;-79
2021/09/10 11:37:58;;;;;;;5.57;3.97;;;24.90;99.90;;;;;;5097960;28;20044;-80
2021/09/10 11:40:38;;;;;;;6.22;3.80;;;24.80;99.90;;;;;;5103861;28;20428;-79
2021/09/10 11:43:14;;;;;;;5.38;4.20;;;24.80;99.90;;;;;;5081037;28;20028;-80
2021/09/10 11:45:53;;;;;;;5.32;4.40;;;25.00;99.90;;;;;;5080269;28;20024;-79
2021/09/10 11:48:19;;;;;;;6.18;4.22;;;25.10;99.90;;;;;;5097637;28;20552;-80
2021/09/10 11:50:50;;;;;;;6.88;4.18;;;25.00;99.90;;;;;;5094181;28;20033;-79
2021/09/10 11:53:24;;;;;;;5.05;4.10;;;25.10;99.90;;;;;;5097559;28;20032;-79
2021/09/10 11:55:52;;;;;;;6.28;4.22;;;25.20;99.90;;;;;;5097987;28;20038;-80
2021/09/10 11:58:18;;;;;;;10.07;4.00;;;25.40;99.90;;;;;;5114176;28;20055;-80
2021/09/10 12:00:43;;;;;;;6.13;4.18;;;25.60;99.90;;;;;;5097003;28;20021;-78
2021/09/10 12:03:09;;;;;;;5.90;4.38;;;25.60;99.90;;;;;;5061564;28;20035;-80
2021/09/10 12:05:35;;;;;;;5.63;3.80;;;25.70;99.90;;;;;;5077635;28;20029;-79
2021/09/10 12:08:01;;;;;;;5.88;3.90;;;;;;;;;;5069589;28;20469;-79
2021/09/10 12:10:31;;;;;;;6.63;4.00;;;;;;;;;;5095671;28;20623;-79
2021/09/10 12:13:13;;;;;;;5.45;4.15;;;25.90;99.90;;;;;;5093906;28;20028;-79
2021/09/10 12:15:41;;;;;;;6.13;4.30;;;27.30;99.50;;;;;;5097668;28;20043;-80
2021/09/10 12:18:15;;;;;;;6.40;4.40;;;27.90;98.10;;;;;;5078309;28;20695;-80
2021/09/10 12:20:43;;;;;;;7.55;4.65;;;27.90;98.40;;;;;;5099198;28;20401;-79
2021/09/10 12:23:18;;;;;;;4.88;4.05;;;28.60;97.10;;;;;;5083804;28;20027;-80
2021/09/10 12:26:05;;;;;;;4.50;4.10;;;29.20;96.90;;;;;;5118338;28;20023;-80
2021/09/10 12:28:33;;;;;;;6.97;3.97;;;29.00;95.80;;;;;;5117087;28;20403;-79
2021/09/10 12:31:04;;;;;;;8.45;4.20;;;28.70;96.50;;;;;;5111597;28;20024;-80
2021/09/10 12:33:30;;;;;;;6.70;4.53;;;27.70;97.50;;;;;;5079145;28;20066;-81
2021/09/10 12:35:58;;;;;;;6.65;4.65;;;26.80;99.10;;;;;;5096590;28;20400;-80
2021/09/10 12:38:33;;;;;;;6.18;4.30;;;26.30;99.90;;;;;;5096500;28;20028;-80
2021/09/10 12:41:00;;;;;;;7.63;4.90;;;25.90;99.90;;;;;;5075823;28;20017;-79
2021/09/10 12:43:26;;;;;;;5.40;4.28;;;25.70;99.90;;;;;;5076019;28;20025;-79
2021/09/10 12:45:53;;;;;;;7.45;4.40;;;25.60;99.90;;;;;;5077287;28;20334;-79
2021/09/10 12:48:19;;;;;;;5.40;4.88;;;25.40;99.90;;;;;;5079146;28;20053;-79
2021/09/10 12:50:46;;;;;;;5.25;4.35;;;25.20;99.90;;;;;;5053746;28;20036;-79
2021/09/10 12:53:11;;;;;;;6.43;5.38;;;25.00;99.90;;;;;;5081159;28;20403;-80
2021/09/10 12:55:38;;;;;;;6.65;5.03;;;24.70;99.90;;;;;;5098369;28;20025;-81
2021/09/10 12:58:05;;;;;;;6.60;5.65;;;24.50;99.90;;;;;;5080638;28;20028;-80
2021/09/10 13:00:31;;;;;;;6.00;5.10;;;24.60;99.90;;;;;;5099532;28;20023;-79
2021/09/10 13:02:57;;;;;;;6.30;4.68;;;24.80;99.90;;;;;;5080931;28;20091;-78
2021/09/10 13:05:22;;;;;;;7.25;5.10;;;24.90;99.90;;;;;;5065770;28;20055;-80
2021/09/10 13:07:48;;;;;;;6.90;4.88;;;25.00;99.90;;;;;;5100888;28;20099;-78
2021/09/10 13:10:14;;;;;;;7.13;4.95;;;25.20;99.90;;;;;;5101361;28;20031;-80
2021/09/10 13:12:41;;;;;;;5.90;4.43;;;25.30;99.90;;;;;;5102145;28;20036;-78
2021/09/10 13:15:08;;;;;;;6.93;5.38;;;25.40;99.90;;;;;;5090443;28;20154;-79
2021/09/10 13:17:34;;;;;;;6.40;4.55;;;25.50;99.90;;;;;;5076907;28;20025;-80
2021/09/10 13:20:00;;;;;;;7.70;5.05;;;25.40;99.90;;;;;;5083527;28;20020;-78
2021/09/10 13:22:25;;;;;;;11.45;4.93;;;25.10;99.90;;;;;;5082766;28;20025;-79
2021/09/10 13:24:51;;;;;;;7.78;4.75;;;25.30;99.90;;;;;;5081823;28;20077;-80
2021/09/10 13:27:18;;;;;;;7.95;5.00;;;25.20;99.90;;;;;;5099697;28;20061;-80
2021/09/10 13:29:45;;;;;;;5.70;4.88;;;24.90;99.90;;;;;;5079293;28;20028;-79
2021/09/10 13:32:11;;;;;;;5.32;4.82;;;24.70;99.90;;;;;;5048887;28;20506;-79
2021/09/10 13:34:37;;;;;;;7.65;5.05;;;24.60;99.90;;;;;;5099882;28;20024;-79
2021/09/10 13:37:09;;;;;;;6.18;5.28;;;24.60;99.90;;;;;;5084392;28;20034;-79
2021/09/10 13:39:34;;;;;;;6.55;5.07;;;24.60;99.90;;;;;;5104073;28;20415;-78
2021/09/10 13:42:00;;;;;;;6.28;4.60;;;24.70;99.90;;;;;;5076311;28;20047;-79
2021/09/10 13:44:26;;;;;;;5.28;4.63;;;24.90;99.90;;;;;;5108052;28;20028;-78
2021/09/10 13:46:51;;;;;;;6.82;4.50;;;25.30;99.90;;;;;;5103167;28;20446;-79
2021/09/10 13:49:17;;;;;;;7.38;4.35;;;25.60;99.90;;;;;;5061268;28;20667;-78
2021/09/10 13:51:43;;;;;;;7.15;4.60;;;26.10;99.90;;;;;;5061265;28;20117;-78
2021/09/10 13:54:08;;;;;;;5.82;5.00;;;26.60;99.90;;;;;;5096036;28;20047;-79
2021/09/10 13:56:34;;;;;;;7.57;4.65;;;26.60;99.90;;;;;;5095513;28;20029;-80
2021/09/10 13:59:00;;;;;;;6.03;4.93;;;26.70;99.90;;;;;;5095504;28;20489;-80
2021/09/10 14:01:25;;;;;;;6.90;4.40;;;27.00;99.90;;;;;;5077880;28;20048;-80
2021/09/10 14:03:51;;;;;;;7.20;4.32;;;26.90;99.90;;;;;;5096366;28;20032;-81
2021/09/10 14:06:16;;;;;;;5.15;4.65;;;27.20;99.90;;;;;;5077388;28;20451;-81
2021/09/10 14:08:42;;;;;;;6.88;4.68;;;27.40;99.90;;;;;;5077481;28;20058;-79